UAL1979 KBOS-KEWR
Flight info
| Callsign | UAL1979 |
|---|---|
| Flight time | 0h 44m |
| Altitude | 16000 |
| Route | PATSS7 PATSS NELIE FLOSI4 |
| Aircraft | B738/M-SDE2E3FGHIRWXY/LB1 |
Departure
| Time | 2026-05-05 20:57 |
|---|---|
| Airport | Boston Logan International Airport (KBOS) |
Arrival
| Time | 2026-05-05 21:41 |
|---|---|
| Airport | Newark Liberty International Airport (KEWR) |
| Time | Latitude | Longitude | Altitude | Speed | Heading |
|---|---|---|---|---|---|
| 2026-05-05 20:23 | 42.36290 | -71.01618 | 24 ft | 0 kts | 338° |
| 2026-05-05 20:44 | 42.36272 | -71.01608 | 29 ft | 4 kts | 338° |
| 2026-05-05 20:45 | 42.36242 | -71.01610 | 28 ft | 4 kts | 94° |
| 2026-05-05 20:45 | 42.36241 | -71.01614 | 27 ft | 4 kts | 110° |
| 2026-05-05 20:45 | 42.36232 | -71.01580 | 27 ft | 3 kts | 110° |
| 2026-05-05 20:46 | 42.36231 | -71.01576 | 27 ft | 0 kts | 110° |
| 2026-05-05 20:49 | 42.36230 | -71.01575 | 27 ft | 1 kts | 110° |
| 2026-05-05 20:50 | 42.36221 | -71.01539 | 25 ft | 7 kts | 104° |
| 2026-05-05 20:50 | 42.36229 | -71.01495 | 26 ft | 6 kts | 54° |
| 2026-05-05 20:50 | 42.36279 | -71.01459 | 26 ft | 10 kts | 21° |
| 2026-05-05 20:50 | 42.36341 | -71.01425 | 25 ft | 9 kts | 39° |
| 2026-05-05 20:51 | 42.36360 | -71.01359 | 25 ft | 8 kts | 76° |
| 2026-05-05 20:51 | 42.36400 | -71.01303 | 25 ft | 10 kts | 25° |
| 2026-05-05 20:51 | 42.36464 | -71.01270 | 26 ft | 10 kts | 20° |
| 2026-05-05 20:51 | 42.36536 | -71.01236 | 25 ft | 13 kts | 19° |
| 2026-05-05 20:52 | 42.36628 | -71.01192 | 26 ft | 14 kts | 20° |
| 2026-05-05 20:52 | 42.36717 | -71.01150 | 27 ft | 13 kts | 15° |
| 2026-05-05 20:52 | 42.36800 | -71.01167 | 27 ft | 12 kts | 327° |
| 2026-05-05 20:52 | 42.36864 | -71.01219 | 29 ft | 9 kts | 356° |
| 2026-05-05 20:53 | 42.36921 | -71.01181 | 25 ft | 10 kts | 37° |
| 2026-05-05 20:53 | 42.36993 | -71.01108 | 25 ft | 17 kts | 31° |
| 2026-05-05 20:53 | 42.37104 | -71.01033 | 27 ft | 18 kts | 25° |
| 2026-05-05 20:53 | 42.37215 | -71.00962 | 29 ft | 18 kts | 25° |
| 2026-05-05 20:54 | 42.37331 | -71.00893 | 25 ft | 19 kts | 20° |
| 2026-05-05 20:54 | 42.37453 | -71.00833 | 25 ft | 18 kts | 20° |
| 2026-05-05 20:54 | 42.37569 | -71.00776 | 25 ft | 18 kts | 20° |
| 2026-05-05 20:54 | 42.37682 | -71.00721 | 26 ft | 17 kts | 20° |
| 2026-05-05 20:55 | 42.37791 | -71.00669 | 27 ft | 16 kts | 19° |
| 2026-05-05 20:55 | 42.37831 | -71.00571 | 25 ft | 12 kts | 100° |
| 2026-05-05 20:55 | 42.37785 | -71.00486 | 25 ft | 12 kts | 169° |
| 2026-05-05 20:55 | 42.37712 | -71.00512 | 27 ft | 10 kts | 200° |
| 2026-05-05 20:56 | 42.37645 | -71.00547 | 27 ft | 10 kts | 200° |
| 2026-05-05 20:56 | 42.37546 | -71.00593 | 25 ft | 38 kts | 199° |
| 2026-05-05 20:56 | 42.37021 | -71.00844 | 27 ft | 119 kts | 200° |
| 2026-05-05 20:56 | 42.36116 | -71.01283 | 578 ft | 140 kts | 200° |
| 2026-05-05 20:57 | 42.35223 | -71.01786 | 1645 ft | 144 kts | 194° |
| 2026-05-05 20:57 | 42.34112 | -71.01620 | 2072 ft | 183 kts | 170° |
| 2026-05-05 20:57 | 42.32920 | -71.00718 | 2551 ft | 213 kts | 145° |
| 2026-05-05 20:57 | 42.32108 | -70.98882 | 3117 ft | 238 kts | 123° |
| 2026-05-05 20:58 | 42.31488 | -70.96757 | 3818 ft | 248 kts | 116° |
| 2026-05-05 20:58 | 42.31288 | -70.94319 | 4295 ft | 284 kts | 88° |
| 2026-05-05 20:58 | 42.31671 | -70.91565 | 4710 ft | 307 kts | 82° |
| 2026-05-05 20:58 | 42.32114 | -70.88707 | 5468 ft | 315 kts | 82° |
| 2026-05-05 20:59 | 42.32551 | -70.85776 | 6278 ft | 320 kts | 82° |
| 2026-05-05 20:59 | 42.32976 | -70.82812 | 7111 ft | 323 kts | 83° |
| 2026-05-05 20:59 | 42.32979 | -70.79813 | 7947 ft | 317 kts | 107° |
| 2026-05-05 20:59 | 42.32198 | -70.77071 | 8761 ft | 312 kts | 124° |
| 2026-05-05 21:00 | 42.31116 | -70.74515 | 9506 ft | 314 kts | 134° |
| 2026-05-05 21:00 | 42.29514 | -70.72637 | 10247 ft | 302 kts | 160° |
| 2026-05-05 21:00 | 42.27531 | -70.71777 | 10808 ft | 298 kts | 180° |
| 2026-05-05 21:00 | 42.25496 | -70.71869 | 11501 ft | 293 kts | 195° |
| 2026-05-05 21:01 | 42.23471 | -70.72335 | 12253 ft | 297 kts | 196° |
| 2026-05-05 21:01 | 42.21460 | -70.72950 | 12978 ft | 296 kts | 207° |
| 2026-05-05 21:01 | 42.19758 | -70.74439 | 13718 ft | 290 kts | 229° |
| 2026-05-05 21:01 | 42.18532 | -70.76633 | 14047 ft | 304 kts | 245° |
| 2026-05-05 21:02 | 42.17902 | -70.79400 | 14217 ft | 323 kts | 258° |
| 2026-05-05 21:02 | 42.17488 | -70.82480 | 14358 ft | 344 kts | 260° |
| 2026-05-05 21:02 | 42.17080 | -70.85742 | 14481 ft | 362 kts | 260° |
| 2026-05-05 21:02 | 42.16636 | -70.89155 | 14721 ft | 376 kts | 259° |
| 2026-05-05 21:03 | 42.16166 | -70.92649 | 15218 ft | 380 kts | 259° |
| 2026-05-05 21:03 | 42.15724 | -70.96167 | 15804 ft | 383 kts | 261° |
| 2026-05-05 21:03 | 42.15377 | -70.99739 | 16003 ft | 382 kts | 262° |
| 2026-05-05 21:03 | 42.15074 | -71.03301 | 16030 ft | 385 kts | 263° |
| 2026-05-05 21:04 | 42.14778 | -71.06895 | 16026 ft | 385 kts | 263° |
| 2026-05-05 21:04 | 42.14478 | -71.10476 | 16021 ft | 385 kts | 262° |
| 2026-05-05 21:04 | 42.14170 | -71.14061 | 16064 ft | 388 kts | 262° |
| 2026-05-05 21:04 | 42.13850 | -71.17691 | 16566 ft | 390 kts | 262° |
| 2026-05-05 21:05 | 42.13525 | -71.21322 | 17216 ft | 391 kts | 262° |
| 2026-05-05 21:05 | 42.13195 | -71.24968 | 17743 ft | 394 kts | 262° |
| 2026-05-05 21:05 | 42.12859 | -71.28651 | 18203 ft | 398 kts | 262° |
| 2026-05-05 21:05 | 42.12519 | -71.32365 | 18659 ft | 401 kts | 262° |
| 2026-05-05 21:06 | 42.12292 | -71.34839 | 18970 ft | 402 kts | 262° |
| 2026-05-05 21:06 | 42.11946 | -71.38593 | 19425 ft | 405 kts | 262° |
| 2026-05-05 21:06 | 42.11596 | -71.42375 | 19874 ft | 408 kts | 262° |
| 2026-05-05 21:06 | 42.11243 | -71.46177 | 20340 ft | 411 kts | 262° |
| 2026-05-05 21:07 | 42.10888 | -71.49997 | 20769 ft | 413 kts | 262° |
| 2026-05-05 21:07 | 42.10526 | -71.53860 | 21171 ft | 416 kts | 262° |
| 2026-05-05 21:07 | 42.10186 | -71.57488 | 21552 ft | 419 kts | 262° |
| 2026-05-05 21:07 | 42.09820 | -71.61387 | 21957 ft | 421 kts | 263° |
| 2026-05-05 21:08 | 42.09450 | -71.65305 | 22345 ft | 423 kts | 263° |
| 2026-05-05 21:08 | 42.09076 | -71.69246 | 22719 ft | 426 kts | 263° |
| 2026-05-05 21:08 | 42.08660 | -71.73200 | 23074 ft | 428 kts | 261° |
| 2026-05-05 21:08 | 42.08120 | -71.77155 | 23429 ft | 430 kts | 259° |
| 2026-05-05 21:09 | 42.07519 | -71.81108 | 23750 ft | 432 kts | 259° |
| 2026-05-05 21:09 | 42.06900 | -71.85072 | 24069 ft | 433 kts | 259° |
| 2026-05-05 21:09 | 42.06281 | -71.89050 | 24377 ft | 435 kts | 259° |
| 2026-05-05 21:09 | 42.05668 | -71.93042 | 24668 ft | 437 kts | 259° |
| 2026-05-05 21:10 | 42.05059 | -71.97055 | 24956 ft | 438 kts | 259° |
| 2026-05-05 21:10 | 42.04453 | -72.01085 | 25251 ft | 440 kts | 259° |
| 2026-05-05 21:10 | 42.03848 | -72.05119 | 25523 ft | 442 kts | 259° |
| 2026-05-05 21:10 | 42.03239 | -72.09178 | 25790 ft | 443 kts | 259° |
| 2026-05-05 21:11 | 42.02628 | -72.13246 | 26201 ft | 442 kts | 259° |
| 2026-05-05 21:11 | 42.02020 | -72.17274 | 26650 ft | 439 kts | 259° |
| 2026-05-05 21:11 | 42.01413 | -72.21292 | 27047 ft | 438 kts | 259° |
| 2026-05-05 21:11 | 42.00804 | -72.25310 | 27439 ft | 438 kts | 259° |
| 2026-05-05 21:12 | 42.00197 | -72.29307 | 27773 ft | 437 kts | 259° |
| 2026-05-05 21:12 | 41.99587 | -72.33306 | 28172 ft | 436 kts | 259° |
| 2026-05-05 21:12 | 41.98978 | -72.37293 | 28615 ft | 434 kts | 259° |
| 2026-05-05 21:12 | 41.98371 | -72.41261 | 29038 ft | 433 kts | 259° |
| 2026-05-05 21:13 | 41.97762 | -72.45227 | 29409 ft | 433 kts | 259° |
| 2026-05-05 21:13 | 41.97153 | -72.49189 | 29805 ft | 432 kts | 259° |
| 2026-05-05 21:13 | 41.96005 | -72.56623 | 29825 ft | 433 kts | 259° |
| 2026-05-05 21:14 | 41.94782 | -72.64516 | 29828 ft | 430 kts | 259° |
| 2026-05-05 21:14 | 41.93439 | -72.72331 | 29824 ft | 430 kts | 255° |
| 2026-05-05 21:15 | 41.91606 | -72.79963 | 29825 ft | 429 kts | 253° |
| 2026-05-05 21:15 | 41.89698 | -72.87555 | 29820 ft | 429 kts | 253° |
| 2026-05-05 21:16 | 41.87845 | -72.95114 | 29826 ft | 429 kts | 254° |
| 2026-05-05 21:16 | 41.86006 | -73.02738 | 29819 ft | 430 kts | 254° |
| 2026-05-05 21:17 | 41.84164 | -73.10380 | 29830 ft | 431 kts | 254° |
| 2026-05-05 21:17 | 41.82312 | -73.18043 | 29833 ft | 433 kts | 254° |
| 2026-05-05 21:18 | 41.80448 | -73.25724 | 29832 ft | 433 kts | 254° |
| 2026-05-05 21:18 | 41.78577 | -73.33407 | 29826 ft | 434 kts | 254° |
| 2026-05-05 21:19 | 41.76700 | -73.41089 | 29813 ft | 434 kts | 254° |
| 2026-05-05 21:19 | 41.74819 | -73.48762 | 29800 ft | 434 kts | 254° |
| 2026-05-05 21:20 | 41.72935 | -73.56418 | 29788 ft | 433 kts | 254° |
| 2026-05-05 21:20 | 41.71186 | -73.63505 | 29772 ft | 429 kts | 254° |
| 2026-05-05 21:21 | 41.69309 | -73.71094 | 29768 ft | 430 kts | 254° |
| 2026-05-05 21:21 | 41.67502 | -73.78379 | 29773 ft | 431 kts | 254° |
| 2026-05-05 21:22 | 41.65629 | -73.85997 | 29766 ft | 432 kts | 255° |
| 2026-05-05 21:22 | 41.63825 | -73.93660 | 29769 ft | 432 kts | 255° |
| 2026-05-05 21:23 | 41.62023 | -74.01320 | 29771 ft | 433 kts | 255° |
| 2026-05-05 21:23 | 41.60202 | -74.08986 | 29780 ft | 432 kts | 255° |
| 2026-05-05 21:24 | 41.58387 | -74.16591 | 29788 ft | 432 kts | 255° |
| 2026-05-05 21:24 | 41.56545 | -74.24290 | 29260 ft | 437 kts | 255° |
| 2026-05-05 21:25 | 41.55487 | -74.28071 | 28480 ft | 437 kts | 245° |
| 2026-05-05 21:25 | 41.53713 | -74.31381 | 27654 ft | 441 kts | 230° |
| 2026-05-05 21:25 | 41.51404 | -74.34084 | 26847 ft | 445 kts | 219° |
| 2026-05-05 21:25 | 41.48646 | -74.36036 | 25942 ft | 454 kts | 204° |
| 2026-05-05 21:26 | 41.45627 | -74.37314 | 25041 ft | 456 kts | 201° |
| 2026-05-05 21:26 | 41.42602 | -74.38522 | 24383 ft | 450 kts | 201° |
| 2026-05-05 21:26 | 41.39635 | -74.39745 | 23744 ft | 445 kts | 201° |
| 2026-05-05 21:26 | 41.36741 | -74.40982 | 23078 ft | 439 kts | 202° |
| 2026-05-05 21:27 | 41.33851 | -74.42233 | 22340 ft | 434 kts | 202° |
| 2026-05-05 21:27 | 41.30998 | -74.43465 | 21668 ft | 428 kts | 202° |
| 2026-05-05 21:27 | 41.28184 | -74.44675 | 21010 ft | 423 kts | 202° |
| 2026-05-05 21:27 | 41.25411 | -74.45861 | 20543 ft | 415 kts | 202° |
| 2026-05-05 21:28 | 41.22665 | -74.47035 | 19863 ft | 412 kts | 202° |
| 2026-05-05 21:28 | 41.19953 | -74.48194 | 19230 ft | 408 kts | 202° |
| 2026-05-05 21:28 | 41.17261 | -74.49345 | 18602 ft | 405 kts | 202° |
| 2026-05-05 21:28 | 41.14588 | -74.50488 | 17952 ft | 402 kts | 202° |
| 2026-05-05 21:29 | 41.11938 | -74.51619 | 17237 ft | 399 kts | 202° |
| 2026-05-05 21:29 | 41.09307 | -74.52739 | 16581 ft | 394 kts | 202° |
| 2026-05-05 21:29 | 41.06698 | -74.53805 | 15938 ft | 393 kts | 199° |
| 2026-05-05 21:29 | 41.03981 | -74.54300 | 15293 ft | 396 kts | 189° |
| 2026-05-05 21:30 | 41.01232 | -74.54499 | 14658 ft | 393 kts | 189° |
| 2026-05-05 21:30 | 40.98519 | -74.54674 | 14048 ft | 390 kts | 189° |
| 2026-05-05 21:30 | 40.95815 | -74.54870 | 13405 ft | 387 kts | 189° |
| 2026-05-05 21:30 | 40.93290 | -74.55078 | 12771 ft | 384 kts | 189° |
| 2026-05-05 21:31 | 40.90637 | -74.55315 | 12132 ft | 380 kts | 189° |
| 2026-05-05 21:31 | 40.88016 | -74.55547 | 11539 ft | 377 kts | 187° |
| 2026-05-05 21:31 | 40.85456 | -74.55051 | 11371 ft | 368 kts | 166° |
| 2026-05-05 21:31 | 40.83234 | -74.53534 | 11230 ft | 354 kts | 150° |
| 2026-05-05 21:32 | 40.81425 | -74.51423 | 11099 ft | 341 kts | 136° |
| 2026-05-05 21:32 | 40.80068 | -74.48942 | 10976 ft | 329 kts | 123° |
| 2026-05-05 21:32 | 40.79201 | -74.46211 | 10857 ft | 318 kts | 109° |
| 2026-05-05 21:32 | 40.78838 | -74.43354 | 10502 ft | 316 kts | 94° |
| 2026-05-05 21:33 | 40.78994 | -74.40474 | 10034 ft | 316 kts | 79° |
| 2026-05-05 21:33 | 40.79403 | -74.38302 | 9719 ft | 314 kts | 71° |
| 2026-05-05 21:33 | 40.80249 | -74.35671 | 9247 ft | 310 kts | 57° |
| 2026-05-05 21:33 | 40.81533 | -74.33423 | 8819 ft | 305 kts | 46° |
| 2026-05-05 21:34 | 40.82942 | -74.31342 | 8354 ft | 303 kts | 45° |
| 2026-05-05 21:34 | 40.84369 | -74.29292 | 7896 ft | 303 kts | 46° |
| 2026-05-05 21:34 | 40.85794 | -74.27242 | 7439 ft | 303 kts | 46° |
| 2026-05-05 21:34 | 40.87202 | -74.25201 | 7043 ft | 300 kts | 46° |
| 2026-05-05 21:35 | 40.88608 | -74.23155 | 6569 ft | 301 kts | 47° |
| 2026-05-05 21:35 | 40.90001 | -74.21124 | 6233 ft | 296 kts | 47° |
| 2026-05-05 21:35 | 40.91151 | -74.18887 | 5741 ft | 294 kts | 72° |
| 2026-05-05 21:35 | 40.91446 | -74.16287 | 5308 ft | 284 kts | 101° |
| 2026-05-05 21:36 | 40.90894 | -74.13869 | 4868 ft | 270 kts | 126° |
| 2026-05-05 21:36 | 40.89766 | -74.11973 | 4527 ft | 254 kts | 146° |
| 2026-05-05 21:36 | 40.88370 | -74.10691 | 4319 ft | 239 kts | 157° |
| 2026-05-05 21:36 | 40.86947 | -74.09633 | 4103 ft | 230 kts | 158° |
| 2026-05-05 21:37 | 40.85581 | -74.08634 | 3929 ft | 221 kts | 159° |
| 2026-05-05 21:37 | 40.84202 | -74.07819 | 3543 ft | 212 kts | 178° |
| 2026-05-05 21:37 | 40.82797 | -74.07912 | 3260 ft | 198 kts | 199° |
| 2026-05-05 21:37 | 40.81529 | -74.08548 | 2942 ft | 193 kts | 208° |
| 2026-05-05 21:38 | 40.80330 | -74.09329 | 2641 ft | 191 kts | 210° |
| 2026-05-05 21:38 | 40.79149 | -74.10106 | 2137 ft | 195 kts | 210° |
| 2026-05-05 21:38 | 40.77873 | -74.11026 | 1507 ft | 208 kts | 207° |
| 2026-05-05 21:38 | 40.76643 | -74.11776 | 1441 ft | 185 kts | 206° |
| 2026-05-05 21:39 | 40.75529 | -74.12468 | 1218 ft | 171 kts | 207° |
| 2026-05-05 21:39 | 40.74516 | -74.13114 | 1026 ft | 153 kts | 208° |
| 2026-05-05 21:39 | 40.73609 | -74.13696 | 865 ft | 138 kts | 206° |
| 2026-05-05 21:39 | 40.72808 | -74.14207 | 677 ft | 122 kts | 207° |
| 2026-05-05 21:40 | 40.72068 | -74.14680 | 516 ft | 117 kts | 209° |
| 2026-05-05 21:40 | 40.71338 | -74.15144 | 372 ft | 119 kts | 212° |
| 2026-05-05 21:40 | 40.70573 | -74.15632 | 234 ft | 125 kts | 208° |
| 2026-05-05 21:40 | 40.69803 | -74.16128 | 101 ft | 121 kts | 203° |
| 2026-05-05 21:41 | 40.69131 | -74.16541 | 33 ft | 92 kts | 207° |
| 2026-05-05 21:41 | 40.68621 | -74.16864 | 20 ft | 68 kts | 206° |
| 2026-05-05 21:41 | 40.68325 | -74.17062 | 19 ft | 22 kts | 211° |
| 2026-05-05 21:41 | 40.68255 | -74.17187 | 20 ft | 13 kts | 242° |
| 2026-05-05 21:42 | 40.68245 | -74.17211 | 20 ft | 0 kts | 243° |
| 2026-05-05 21:42 | 40.68245 | -74.17212 | 20 ft | 1 kts | 243° |
| 2026-05-05 21:42 | 40.68234 | -74.17237 | 19 ft | 6 kts | 240° |
| 2026-05-05 21:43 | 40.68207 | -74.17293 | 19 ft | 8 kts | 235° |
| 2026-05-05 21:43 | 40.68175 | -74.17353 | 19 ft | 9 kts | 234° |
| 2026-05-05 21:43 | 40.68146 | -74.17423 | 18 ft | 9 kts | 262° |
| 2026-05-05 21:43 | 40.68166 | -74.17503 | 19 ft | 10 kts | 296° |
| 2026-05-05 21:44 | 40.68197 | -74.17591 | 19 ft | 11 kts | 295° |
| 2026-05-05 21:44 | 40.68240 | -74.17679 | 19 ft | 12 kts | 319° |
| 2026-05-05 21:44 | 40.68308 | -74.17746 | 19 ft | 12 kts | 316° |
| 2026-05-05 21:44 | 40.68342 | -74.17807 | 20 ft | 5 kts | 300° |
| 2026-05-05 21:45 | 40.68357 | -74.17843 | 19 ft | 1 kts | 299° |
| 2026-05-05 21:45 | 40.68358 | -74.17845 | 19 ft | 2 kts | 299° |
| 2026-05-05 21:46 | 40.68375 | -74.17886 | 19 ft | 8 kts | 299° |
| 2026-05-05 21:46 | 40.68392 | -74.17973 | 19 ft | 12 kts | 264° |
| 2026-05-05 21:46 | 40.68342 | -74.18061 | 19 ft | 13 kts | 204° |
| 2026-05-05 21:46 | 40.68258 | -74.18081 | 19 ft | 12 kts | 186° |
| 2026-05-05 21:47 | 40.68201 | -74.18138 | 22 ft | 10 kts | 256° |
| 2026-05-05 21:47 | 40.68202 | -74.18226 | 19 ft | 9 kts | 274° |
| 2026-05-05 21:47 | 40.68207 | -74.18311 | 19 ft | 9 kts | 274° |
| 2026-05-05 21:47 | 40.68211 | -74.18395 | 19 ft | 9 kts | 274° |
| 2026-05-05 21:48 | 40.68216 | -74.18476 | 19 ft | 9 kts | 274° |
| 2026-05-05 21:48 | 40.68217 | -74.18554 | 22 ft | 8 kts | 257° |
| 2026-05-05 21:48 | 40.68174 | -74.18601 | 20 ft | 8 kts | 199° |
| 2026-05-05 21:48 | 40.68125 | -74.18637 | 19 ft | 8 kts | 230° |
| 2026-05-05 21:49 | 40.68115 | -74.18698 | 19 ft | 4 kts | 280° |
| 2026-05-05 21:49 | 40.68123 | -74.18734 | 19 ft | 4 kts | 285° |
| 2026-05-05 21:49 | 40.68123 | -74.18737 | 19 ft | 0 kts | 286° |